createdAt,value
2022-10-12T00:02:24.695Z,12.90
2022-10-12T00:04:51.646Z,10.60
2022-10-12T00:07:18.603Z,13.10
2022-10-12T00:09:45.597Z,13.10
2022-10-12T00:12:12.805Z,13.40
2022-10-12T00:14:39.705Z,10.60
2022-10-12T00:17:06.610Z,10.60
2022-10-12T00:19:33.668Z,10.50
2022-10-12T00:22:00.823Z,10.50
2022-10-12T00:24:27.785Z,10.40
2022-10-12T00:26:54.663Z,11.90
2022-10-12T00:29:21.642Z,11.60
2022-10-12T00:31:48.612Z,10.50
2022-10-12T00:34:15.545Z,10.30
2022-10-12T00:36:42.479Z,12.00
2022-10-12T00:39:10.371Z,10.20
2022-10-12T00:41:42.644Z,10.20
2022-10-12T00:44:49.273Z,10.20
2022-10-12T00:47:28.727Z,10.10
2022-10-12T00:50:22.647Z,10.10
2022-10-12T00:52:57.739Z,10.10
2022-10-12T00:55:27.787Z,10.10
2022-10-12T00:57:55.993Z,10.00
2022-10-12T01:00:23.586Z,9.90
2022-10-12T01:02:53.630Z,9.90
2022-10-12T01:05:21.275Z,12.90
2022-10-12T01:07:48.239Z,9.90
2022-10-12T01:10:15.209Z,12.70
2022-10-12T01:12:44.585Z,9.70
2022-10-12T01:15:13.583Z,11.00
2022-10-12T01:17:59.692Z,10.70
2022-10-12T01:20:38.776Z,9.70
2022-10-12T01:23:18.302Z,9.70
2022-10-12T01:26:09.274Z,9.70
2022-10-12T01:29:13.214Z,9.70
2022-10-12T01:32:30.322Z,9.70
2022-10-12T01:35:25.675Z,9.70
2022-10-12T01:37:58.534Z,9.70
2022-10-12T01:41:16.566Z,9.70
2022-10-12T01:43:45.242Z,9.60
2022-10-12T01:46:21.227Z,9.60
2022-10-12T01:48:58.379Z,9.60
2022-10-12T01:52:11.810Z,9.50
2022-10-12T01:54:53.633Z,9.60
2022-10-12T01:58:01.895Z,9.60
2022-10-12T02:00:36.891Z,9.60
2022-10-12T02:03:27.642Z,9.60
2022-10-12T02:06:07.014Z,9.60
2022-10-12T02:08:42.370Z,9.60
2022-10-12T02:11:13.670Z,11.60
2022-10-12T02:13:49.847Z,9.70
2022-10-12T02:16:21.394Z,9.70
2022-10-12T02:18:53.427Z,9.70
2022-10-12T02:21:26.593Z,12.30
2022-10-12T02:23:56.815Z,12.70
2022-10-12T02:26:24.408Z,12.20
2022-10-12T02:28:51.738Z,12.60
2022-10-12T02:32:16.054Z,9.60
2022-10-12T02:34:56.019Z,9.80
2022-10-12T02:37:45.399Z,9.80
2022-10-12T02:40:58.762Z,9.90
2022-10-12T02:43:54.267Z,9.80
2022-10-12T02:46:24.826Z,9.80
2022-10-12T02:48:53.711Z,9.80
2022-10-12T02:51:23.148Z,9.80
2022-10-12T02:53:50.945Z,11.40
2022-10-12T02:56:17.889Z,9.80
2022-10-12T02:58:46.429Z,12.90
2022-10-12T03:01:14.340Z,12.80
2022-10-12T03:03:41.301Z,13.30
2022-10-12T03:06:08.659Z,12.20
2022-10-12T03:08:36.009Z,10.00
2022-10-12T03:11:04.504Z,9.90
2022-10-12T03:13:31.677Z,12.60
2022-10-12T03:16:07.871Z,11.80
2022-10-12T03:18:35.485Z,10.00
2022-10-12T03:21:03.357Z,10.00
2022-10-12T03:23:30.407Z,12.00
2022-10-12T03:25:57.342Z,13.30
2022-10-12T03:28:24.304Z,10.60
2022-10-12T03:30:51.332Z,9.70
2022-10-12T03:33:18.235Z,9.70
2022-10-12T03:35:45.891Z,11.50
2022-10-12T03:38:14.266Z,9.70
2022-10-12T03:40:41.899Z,9.60
2022-10-12T03:43:09.317Z,10.70
2022-10-12T03:45:36.695Z,9.60
2022-10-12T03:48:05.434Z,9.60
2022-10-12T03:50:34.920Z,9.60
2022-10-12T03:53:04.030Z,9.50
2022-10-12T03:55:31.656Z,9.60
2022-10-12T03:57:58.556Z,9.50
2022-10-12T04:00:26.553Z,10.00
2022-10-12T04:02:53.494Z,9.40
2022-10-12T04:05:20.353Z,9.30
2022-10-12T04:07:47.359Z,9.30
2022-10-12T04:10:14.275Z,9.30
2022-10-12T04:12:41.212Z,9.20
2022-10-12T04:15:09.206Z,9.20
2022-10-12T04:17:36.463Z,9.30
2022-10-12T04:20:04.897Z,11.20
2022-10-12T04:22:31.905Z,9.20
2022-10-12T04:24:58.759Z,11.30
2022-10-12T04:27:25.808Z,9.10
2022-10-12T04:29:52.746Z,9.10
2022-10-12T04:32:19.601Z,9.00
2022-10-12T04:34:46.518Z,10.10
2022-10-12T04:37:13.421Z,8.90
2022-10-12T04:39:40.333Z,8.90
2022-10-12T04:42:07.262Z,8.90
2022-10-12T04:44:34.585Z,8.90
2022-10-12T04:47:02.447Z,8.90
2022-10-12T04:49:29.359Z,8.90
2022-10-12T04:51:56.270Z,8.90
2022-10-12T04:54:23.259Z,11.60
2022-10-12T04:56:50.283Z,8.80
2022-10-12T04:59:17.287Z,8.80
2022-10-12T05:01:44.324Z,8.80
2022-10-12T05:04:11.418Z,8.70
2022-10-12T05:06:38.375Z,8.70
2022-10-12T05:09:05.327Z,10.30
2022-10-12T05:11:32.181Z,10.60
2022-10-12T05:13:59.186Z,8.70
2022-10-12T05:16:26.078Z,8.70
2022-10-12T05:18:53.043Z,8.70
2022-10-12T05:21:20.044Z,8.70
2022-10-12T05:23:53.335Z,11.00
2022-10-12T05:26:20.570Z,8.70
2022-10-12T05:28:47.548Z,9.00
2022-10-12T05:31:14.430Z,8.60
2022-10-12T05:33:43.239Z,11.20
2022-10-12T05:36:10.264Z,11.60
2022-10-12T05:38:37.154Z,8.60
2022-10-12T05:41:04.064Z,8.60
2022-10-12T05:43:31.054Z,8.70
2022-10-12T05:45:58.046Z,8.70
2022-10-12T05:48:25.137Z,8.70
2022-10-12T05:50:55.331Z,8.70
2022-10-12T05:53:22.859Z,11.40
2022-10-12T05:55:58.962Z,8.80
2022-10-12T05:58:28.411Z,8.80
2022-10-12T06:00:55.653Z,8.80
2022-10-12T06:03:25.953Z,8.90
2022-10-12T06:05:53.300Z,10.90
2022-10-12T06:08:20.195Z,8.90
2022-10-12T06:10:50.861Z,8.90
2022-10-12T06:13:19.591Z,8.90
2022-10-12T06:15:47.327Z,9.00
2022-10-12T06:18:15.335Z,9.10
2022-10-12T06:21:08.730Z,9.20
2022-10-12T06:23:40.474Z,9.30
2022-10-12T06:26:07.370Z,10.70
2022-10-12T06:28:34.343Z,9.30
2022-10-12T06:31:01.585Z,12.60
2022-10-12T06:33:32.101Z,9.50
2022-10-12T06:35:59.045Z,12.60
2022-10-12T06:38:26.162Z,12.80
2022-10-12T06:40:53.603Z,9.70
2022-10-12T06:43:22.723Z,12.00
2022-10-12T06:45:50.196Z,9.80
2022-10-12T06:48:18.841Z,11.60
2022-10-12T06:50:47.067Z,10.00
2022-10-12T06:53:13.985Z,10.10
2022-10-12T06:55:40.889Z,13.00
2022-10-12T06:58:07.943Z,10.20
2022-10-12T07:00:35.124Z,10.30
2022-10-12T07:03:02.100Z,11.10
2022-10-12T07:05:29.315Z,13.50
2022-10-12T07:07:56.800Z,10.70
2022-10-12T07:10:24.931Z,13.20
2022-10-12T07:12:51.814Z,10.90
2022-10-12T07:15:18.929Z,13.90
2022-10-12T07:17:45.843Z,13.90
2022-10-12T07:20:13.101Z,11.10
2022-10-12T07:22:40.113Z,11.50
2022-10-12T07:25:07.614Z,13.60
2022-10-12T07:27:34.471Z,11.30
2022-10-12T07:30:01.758Z,12.40
2022-10-12T07:32:28.676Z,11.40
2022-10-12T07:34:55.619Z,13.40
2022-10-12T07:37:22.643Z,11.50
2022-10-12T07:39:49.798Z,12.70
2022-10-12T07:42:19.369Z,14.30
2022-10-12T07:44:46.632Z,14.00
2022-10-12T07:47:14.245Z,11.80
2022-10-12T07:49:41.073Z,13.80
2022-10-12T07:52:07.953Z,14.50
2022-10-12T07:54:34.832Z,12.30
2022-10-12T07:57:01.703Z,14.40
2022-10-12T07:59:28.701Z,13.50
2022-10-12T08:01:55.713Z,15.60
2022-10-12T08:04:22.654Z,12.40
2022-10-12T08:06:49.586Z,13.00
2022-10-12T08:09:16.522Z,13.80
2022-10-12T08:11:43.509Z,12.60
2022-10-12T08:14:16.365Z,13.30
2022-10-12T08:16:44.720Z,14.40
2022-10-12T08:19:12.084Z,15.30
2022-10-12T08:21:39.127Z,16.00
2022-10-12T08:24:06.560Z,15.00
2022-10-12T08:26:33.560Z,12.90
2022-10-12T08:29:03.893Z,13.60
2022-10-12T08:31:30.886Z,15.10
2022-10-12T08:33:58.731Z,15.90
2022-10-12T08:36:25.708Z,14.70
2022-10-12T08:38:55.236Z,15.50
2022-10-12T08:41:55.463Z,13.20
2022-10-12T08:44:59.215Z,13.20
2022-10-12T08:47:48.516Z,13.30
2022-10-12T08:50:26.917Z,13.30
2022-10-12T08:53:22.944Z,13.40
2022-10-12T08:55:50.027Z,16.20
2022-10-12T08:58:30.490Z,13.60
2022-10-12T09:01:15.606Z,13.60
2022-10-12T09:04:00.931Z,15.00
2022-10-12T09:06:55.624Z,14.30
2022-10-12T09:09:55.430Z,16.30
2022-10-12T09:12:43.430Z,13.80
2022-10-12T09:15:25.194Z,13.90
2022-10-12T09:17:58.564Z,14.00
2022-10-12T09:20:49.924Z,16.40
2022-10-12T09:23:30.725Z,14.10
2022-10-12T09:26:09.699Z,14.10
2022-10-12T09:28:43.319Z,14.30
2022-10-12T09:31:10.185Z,15.20
2022-10-12T09:33:48.964Z,15.70
2022-10-12T09:36:21.519Z,14.20
2022-10-12T09:38:49.871Z,16.50
2022-10-12T09:41:40.922Z,15.10
2022-10-12T09:44:15.740Z,15.60
2022-10-12T09:46:49.985Z,15.20
2022-10-12T09:49:16.906Z,17.20
2022-10-12T09:51:44.737Z,15.70
2022-10-12T09:54:19.411Z,16.30
2022-10-12T09:56:55.190Z,15.60
2022-10-12T09:59:30.777Z,15.30
2022-10-12T10:02:08.190Z,14.70
2022-10-12T10:04:35.455Z,14.80
2022-10-12T10:07:33.434Z,14.80
2022-10-12T10:10:15.921Z,14.80
2022-10-12T10:13:01.255Z,14.80
2022-10-12T10:15:38.821Z,14.90
2022-10-12T10:18:22.097Z,14.90
2022-10-12T10:20:55.203Z,15.00
2022-10-12T10:23:32.747Z,15.00
2022-10-12T10:26:10.916Z,16.30
2022-10-12T10:28:40.891Z,15.00
2022-10-12T10:31:22.876Z,15.00
2022-10-12T10:34:07.683Z,15.40
2022-10-12T10:36:45.664Z,14.90
2022-10-12T10:39:29.256Z,14.90
2022-10-12T10:41:56.374Z,14.90
2022-10-12T10:44:34.007Z,14.90
2022-10-12T10:47:10.731Z,15.40
2022-10-12T10:49:45.602Z,14.90
2022-10-12T10:52:27.185Z,16.30
2022-10-12T10:55:53.920Z,15.00
2022-10-12T10:58:39.827Z,15.00
2022-10-12T11:01:46.607Z,15.10
2022-10-12T11:04:25.406Z,15.10
2022-10-12T11:07:00.273Z,15.60
2022-10-12T11:09:42.583Z,15.20
2022-10-12T11:12:27.346Z,15.20
2022-10-12T11:15:15.964Z,15.20
2022-10-12T11:17:57.613Z,15.20
2022-10-12T11:20:51.251Z,15.20
2022-10-12T11:23:53.149Z,15.30
2022-10-12T11:26:43.767Z,15.20
2022-10-12T11:29:13.870Z,15.20
2022-10-12T11:32:07.704Z,15.40
2022-10-12T11:34:49.932Z,15.30
2022-10-12T11:37:25.156Z,15.90
2022-10-12T11:39:54.421Z,15.40
2022-10-12T11:42:43.538Z,15.50
2022-10-12T11:45:23.921Z,15.60
2022-10-12T11:48:00.348Z,16.60
2022-10-12T11:50:41.323Z,15.70
2022-10-12T11:53:53.354Z,15.70
2022-10-12T11:56:42.288Z,16.80
2022-10-12T11:59:43.340Z,15.90
2022-10-12T12:02:17.118Z,16.00
2022-10-12T12:04:47.151Z,16.10
2022-10-12T12:07:23.212Z,16.20
2022-10-12T12:09:51.628Z,16.80
2022-10-12T12:12:29.160Z,16.20
2022-10-12T12:15:00.059Z,16.20
2022-10-12T12:17:32.321Z,16.60
2022-10-12T12:20:02.881Z,16.30
2022-10-12T12:22:50.778Z,17.80
2022-10-12T12:25:39.591Z,16.30
2022-10-12T12:28:20.688Z,16.30
2022-10-12T12:31:03.156Z,17.90
2022-10-12T12:33:41.916Z,17.90
2022-10-12T12:36:26.822Z,16.40
2022-10-12T12:38:54.217Z,16.40
2022-10-12T12:41:27.162Z,16.40
2022-10-12T12:44:00.351Z,18.60
2022-10-12T12:46:55.982Z,16.40
2022-10-12T12:49:43.889Z,16.50
2022-10-12T12:52:39.020Z,16.50
2022-10-12T12:55:33.004Z,16.50
2022-10-12T12:58:18.286Z,16.50
2022-10-12T13:01:13.363Z,16.60
2022-10-12T13:04:22.748Z,16.60
2022-10-12T13:07:21.798Z,16.60
2022-10-12T13:10:09.444Z,16.60
2022-10-12T13:13:15.073Z,16.60
2022-10-12T13:16:05.149Z,16.60
2022-10-12T13:18:57.612Z,16.60
2022-10-12T13:21:41.177Z,16.60
2022-10-12T13:24:44.843Z,16.60
2022-10-12T13:27:48.633Z,16.50
2022-10-12T13:30:39.371Z,16.60
2022-10-12T13:33:10.003Z,16.60
2022-10-12T13:35:52.030Z,17.10
2022-10-12T13:38:26.986Z,16.60
2022-10-12T13:41:04.165Z,17.10
2022-10-12T13:44:07.289Z,18.00
2022-10-12T13:46:56.729Z,16.60
2022-10-12T13:49:31.346Z,16.60
2022-10-12T13:52:19.831Z,16.80
2022-10-12T13:54:49.460Z,16.60
2022-10-12T13:57:29.123Z,17.80
2022-10-12T14:00:16.018Z,16.50
2022-10-12T14:02:54.120Z,16.50
2022-10-12T14:05:24.137Z,16.50
2022-10-12T14:07:55.079Z,17.10
2022-10-12T14:10:35.513Z,17.30
2022-10-12T14:13:05.168Z,16.80
2022-10-12T14:15:40.641Z,16.40
2022-10-12T14:18:38.513Z,16.40
2022-10-12T14:21:26.752Z,16.40
2022-10-12T14:23:59.670Z,16.40
2022-10-12T14:26:29.795Z,16.40
2022-10-12T14:28:59.187Z,18.30
2022-10-12T14:31:52.150Z,16.90
2022-10-12T14:34:27.907Z,16.40
2022-10-12T14:37:14.266Z,16.30
2022-10-12T14:39:48.595Z,16.30
2022-10-12T14:42:38.190Z,16.60
2022-10-12T14:45:22.726Z,16.20
2022-10-12T14:47:49.617Z,16.20
2022-10-12T14:50:20.304Z,17.50
2022-10-12T14:52:53.971Z,16.20
2022-10-12T14:55:27.352Z,16.20
2022-10-12T14:57:54.480Z,16.80
2022-10-12T15:00:28.953Z,17.50
2022-10-12T15:02:55.969Z,16.70
2022-10-12T15:05:26.379Z,18.60
2022-10-12T15:07:53.346Z,16.30
2022-10-12T15:10:23.890Z,17.40
2022-10-12T15:12:51.952Z,16.20
2022-10-12T15:15:46.911Z,17.40
2022-10-12T15:18:14.204Z,16.00
2022-10-12T15:20:49.024Z,17.80
2022-10-12T15:23:16.610Z,17.30
2022-10-12T15:25:55.867Z,15.80
2022-10-12T15:28:24.226Z,16.10
2022-10-12T15:31:16.604Z,15.50
2022-10-12T15:33:39.871Z,15.40
2022-10-12T15:36:07.283Z,16.30
2022-10-12T15:38:34.313Z,15.20
2022-10-12T15:41:01.730Z,16.30
2022-10-12T15:43:29.181Z,16.30
2022-10-12T15:45:56.597Z,16.40
2022-10-12T15:48:23.529Z,16.90
2022-10-12T15:50:50.496Z,15.80
2022-10-12T15:53:24.484Z,15.60
2022-10-12T15:55:53.834Z,14.60
2022-10-12T15:58:21.699Z,15.20
2022-10-12T16:00:48.903Z,15.00
2022-10-12T16:03:24.542Z,16.80
2022-10-12T16:05:53.128Z,16.80
2022-10-12T16:08:19.975Z,16.60
2022-10-12T16:10:47.946Z,15.90
2022-10-12T16:13:15.893Z,16.30
2022-10-12T16:15:43.718Z,15.70
2022-10-12T16:18:11.798Z,15.40
2022-10-12T16:20:41.152Z,13.70
2022-10-12T16:23:15.961Z,15.10
2022-10-12T16:25:43.214Z,15.40
2022-10-12T16:28:11.912Z,14.00
2022-10-12T16:30:41.106Z,15.10
2022-10-12T16:33:08.085Z,15.40
2022-10-12T16:35:35.094Z,14.80
2022-10-12T16:38:01.996Z,13.20
2022-10-12T16:40:28.903Z,13.70
2022-10-12T16:42:55.879Z,14.20
2022-10-12T16:45:25.538Z,13.00
2022-10-12T16:47:53.915Z,15.30
2022-10-12T16:50:24.044Z,14.00
2022-10-12T16:52:51.765Z,14.40
2022-10-12T16:55:20.004Z,15.30
2022-10-12T16:57:47.022Z,15.40
2022-10-12T17:00:19.100Z,14.90
2022-10-12T17:02:47.744Z,12.60
2022-10-12T17:05:14.954Z,12.50
2022-10-12T17:07:41.884Z,13.30
2022-10-12T17:10:09.670Z,14.20
2022-10-12T17:12:36.691Z,12.30
2022-10-12T17:15:05.167Z,12.30
2022-10-12T17:17:32.107Z,12.20
2022-10-12T17:19:59.352Z,9.80
2022-10-12T17:22:26.285Z,14.80
2022-10-12T17:24:53.272Z,13.90
2022-10-12T17:27:20.439Z,12.00
2022-10-12T17:29:47.701Z,12.00
2022-10-12T17:32:15.016Z,11.90
2022-10-12T17:34:44.534Z,14.20
2022-10-12T17:37:12.188Z,12.00
2022-10-12T17:39:48.290Z,14.40
2022-10-12T17:42:15.831Z,14.10
2022-10-12T17:44:42.965Z,13.70
2022-10-12T17:47:09.908Z,13.90
2022-10-12T17:49:36.862Z,12.70
2022-10-12T17:52:04.502Z,14.50
2022-10-12T17:54:32.842Z,11.60
2022-10-12T17:57:00.012Z,13.20
2022-10-12T17:59:27.320Z,13.10
2022-10-12T18:01:54.627Z,11.50
2022-10-12T18:04:21.955Z,11.50
2022-10-12T18:06:49.026Z,14.30
2022-10-12T18:09:16.023Z,13.20
2022-10-12T18:11:44.260Z,14.70
2022-10-12T18:14:11.756Z,14.90
2022-10-12T18:16:38.827Z,13.30
2022-10-12T18:19:09.608Z,12.90
2022-10-12T18:21:37.305Z,11.40
2022-10-12T18:24:12.317Z,11.40
2022-10-12T18:26:45.279Z,11.40
2022-10-12T18:29:12.230Z,12.80
2022-10-12T18:31:39.473Z,14.10
2022-10-12T18:34:06.856Z,11.30
2022-10-12T18:36:34.100Z,11.30
2022-10-12T18:39:03.645Z,11.20
2022-10-12T18:41:31.181Z,12.00
2022-10-12T18:43:59.956Z,13.20
2022-10-12T18:46:29.746Z,11.00
2022-10-12T18:48:57.019Z,12.40
2022-10-12T18:51:28.863Z,12.30
2022-10-12T18:53:57.619Z,10.90
2022-10-12T18:56:24.899Z,10.90
2022-10-12T18:58:52.284Z,12.50
2022-10-12T19:01:22.899Z,12.30
2022-10-12T19:03:50.548Z,13.30
2022-10-12T19:06:27.787Z,12.00
2022-10-12T19:08:56.419Z,10.80
2022-10-12T19:11:25.690Z,12.50
2022-10-12T19:14:03.581Z,12.50
2022-10-12T19:16:34.949Z,12.40
2022-10-12T19:19:05.740Z,10.70
2022-10-12T19:21:34.322Z,11.90
2022-10-12T19:24:07.539Z,13.00
2022-10-12T19:26:35.450Z,10.70
2022-10-12T19:29:02.713Z,13.40
2022-10-12T19:31:33.406Z,10.60
2022-10-12T19:34:07.241Z,10.50
2022-10-12T19:36:35.071Z,10.60
2022-10-12T19:39:09.820Z,10.60
2022-10-12T19:41:37.067Z,10.60
2022-10-12T19:44:05.498Z,10.60
2022-10-12T19:46:33.068Z,12.00
2022-10-12T19:49:00.652Z,10.40
2022-10-12T19:51:29.698Z,12.20
2022-10-12T19:53:59.167Z,12.60
2022-10-12T19:56:27.621Z,12.30
2022-10-12T19:58:57.567Z,13.60
2022-10-12T20:01:28.832Z,10.30
2022-10-12T20:03:55.896Z,12.20
2022-10-12T20:06:27.663Z,10.30
2022-10-12T20:08:57.378Z,11.50
2022-10-12T20:11:25.017Z,10.30
2022-10-12T20:13:53.167Z,10.20
2022-10-12T20:16:21.521Z,10.30
2022-10-12T20:18:50.032Z,12.70
2022-10-12T20:21:20.811Z,11.60
2022-10-12T20:23:48.075Z,13.30
2022-10-12T20:26:22.972Z,12.80
2022-10-12T20:28:51.843Z,12.60
2022-10-12T20:31:23.245Z,10.20
2022-10-12T20:33:54.031Z,10.20
2022-10-12T20:36:25.898Z,11.20
2022-10-12T20:38:53.649Z,11.90
2022-10-12T20:41:21.784Z,11.00
2022-10-12T20:43:49.097Z,10.20
2022-10-12T20:46:18.188Z,10.30
2022-10-12T20:48:46.199Z,10.30
2022-10-12T20:51:26.008Z,10.30
2022-10-12T20:53:53.186Z,10.30
2022-10-12T20:56:20.745Z,10.30
2022-10-12T20:58:47.603Z,10.20
2022-10-12T21:01:16.677Z,10.20
2022-10-12T21:03:43.702Z,13.00
2022-10-12T21:06:15.712Z,10.20
2022-10-12T21:08:43.239Z,8.70
2022-10-12T21:11:10.850Z,10.20
2022-10-12T21:13:42.179Z,10.20
2022-10-12T21:16:10.805Z,11.20
2022-10-12T21:18:39.586Z,13.30
2022-10-12T21:21:11.776Z,10.10
2022-10-12T21:23:41.010Z,13.20
2022-10-12T21:26:20.277Z,10.20
2022-10-12T21:28:47.881Z,10.20
2022-10-12T21:31:15.346Z,10.20
2022-10-12T21:33:43.218Z,10.10
2022-10-12T21:36:15.353Z,10.10
2022-10-12T21:38:43.305Z,10.10
2022-10-12T21:41:12.416Z,10.10
2022-10-12T21:43:41.229Z,10.10
2022-10-12T21:46:15.653Z,10.10
2022-10-12T21:48:43.151Z,10.10
2022-10-12T21:51:10.158Z,10.10
2022-10-12T21:53:38.653Z,10.00
2022-10-12T21:56:17.196Z,10.00
2022-10-12T21:58:45.375Z,10.00
2022-10-12T22:01:24.278Z,12.10
2022-10-12T22:03:58.166Z,10.00
2022-10-12T22:06:27.861Z,10.00
2022-10-12T22:09:08.102Z,10.00
2022-10-12T22:11:36.850Z,9.90
2022-10-12T22:14:08.453Z,9.90
2022-10-12T22:16:36.854Z,9.80
2022-10-12T22:19:07.260Z,11.00
2022-10-12T22:21:36.341Z,9.80
2022-10-12T22:24:04.143Z,12.40
2022-10-12T22:26:31.622Z,9.80
2022-10-12T22:29:58.797Z,9.70
2022-10-12T22:32:26.075Z,9.70
2022-10-12T22:34:54.523Z,10.30
2022-10-12T22:37:22.557Z,10.40
2022-10-12T22:39:49.427Z,11.50
2022-10-12T22:42:16.836Z,9.50
2022-10-12T22:44:43.922Z,9.50
2022-10-12T22:47:10.797Z,9.50
2022-10-12T22:49:37.624Z,10.10
2022-10-12T22:52:04.841Z,9.50
2022-10-12T22:54:31.788Z,9.50
2022-10-12T22:56:59.075Z,11.60
2022-10-12T22:59:25.997Z,9.50
2022-10-12T23:01:52.877Z,12.50
2022-10-12T23:04:19.898Z,9.50
2022-10-12T23:06:46.861Z,9.70
2022-10-12T23:09:14.021Z,9.40
2022-10-12T23:11:40.893Z,9.40
2022-10-12T23:14:10.154Z,9.40
2022-10-12T23:16:36.979Z,9.40
2022-10-12T23:19:06.031Z,9.40
2022-10-12T23:21:34.787Z,9.40
2022-10-12T23:24:04.981Z,9.30
2022-10-12T23:26:32.366Z,9.30
2022-10-12T23:28:59.607Z,11.20
2022-10-12T23:31:29.757Z,9.30
2022-10-12T23:34:03.154Z,12.00
2022-10-12T23:36:30.879Z,9.30
2022-10-12T23:39:01.280Z,9.30
2022-10-12T23:41:28.195Z,9.30
2022-10-12T23:43:55.172Z,9.30
2022-10-12T23:46:22.219Z,9.20
2022-10-12T23:48:49.198Z,11.10
2022-10-12T23:51:16.156Z,9.20
2022-10-12T23:53:43.058Z,9.20
2022-10-12T23:56:10.501Z,9.10
2022-10-12T23:58:37.400Z,10.30
